sensor_id;sensor_type;location;lat;lon;timestamp;P1;durP1;ratioP1;P2;durP2;ratioP2
17917;SDS011;9084;50.956;3.106;2022-12-10T00:01:09;22.33;;;16.93;;
17917;SDS011;9084;50.956;3.106;2022-12-10T00:03:41;18.20;;;15.13;;
17917;SDS011;9084;50.956;3.106;2022-12-10T00:06:09;17.27;;;14.87;;
17917;SDS011;9084;50.956;3.106;2022-12-10T00:08:43;16.77;;;14.87;;
17917;SDS011;9084;50.956;3.106;2022-12-10T00:11:10;18.13;;;14.97;;
17917;SDS011;9084;50.956;3.106;2022-12-10T00:13:38;18.93;;;15.67;;
17917;SDS011;9084;50.956;3.106;2022-12-10T00:16:06;21.23;;;14.83;;
17917;SDS011;9084;50.956;3.106;2022-12-10T00:18:33;20.90;;;16.77;;
17917;SDS011;9084;50.956;3.106;2022-12-10T00:21:14;18.83;;;15.67;;
17917;SDS011;9084;50.956;3.106;2022-12-10T00:23:41;19.17;;;15.93;;
17917;SDS011;9084;50.956;3.106;2022-12-10T00:26:09;19.70;;;16.07;;
17917;SDS011;9084;50.956;3.106;2022-12-10T00:28:37;17.80;;;14.73;;
17917;SDS011;9084;50.956;3.106;2022-12-10T00:31:14;18.70;;;15.93;;
17917;SDS011;9084;50.956;3.106;2022-12-10T00:33:42;20.23;;;16.60;;
17917;SDS011;9084;50.956;3.106;2022-12-10T00:36:24;22.83;;;16.17;;
17917;SDS011;9084;50.956;3.106;2022-12-10T00:38:51;22.13;;;16.73;;
17917;SDS011;9084;50.956;3.106;2022-12-10T00:41:22;18.53;;;14.77;;
17917;SDS011;9084;50.956;3.106;2022-12-10T00:43:49;18.33;;;13.87;;
17917;SDS011;9084;50.956;3.106;2022-12-10T00:46:16;20.43;;;13.60;;
17917;SDS011;9084;50.956;3.106;2022-12-10T00:48:43;21.77;;;17.23;;
17917;SDS011;9084;50.956;3.106;2022-12-10T00:51:14;38.77;;;21.00;;
17917;SDS011;9084;50.956;3.106;2022-12-10T00:53:42;29.63;;;23.00;;
17917;SDS011;9084;50.956;3.106;2022-12-10T00:56:10;45.77;;;27.27;;
17917;SDS011;9084;50.956;3.106;2022-12-10T00:58:37;50.60;;;27.60;;
17917;SDS011;9084;50.956;3.106;2022-12-10T01:01:08;48.93;;;28.60;;
17917;SDS011;9084;50.956;3.106;2022-12-10T01:03:39;49.53;;;28.90;;
17917;SDS011;9084;50.956;3.106;2022-12-10T01:06:09;47.30;;;27.17;;
17917;SDS011;9084;50.956;3.106;2022-12-10T01:08:37;54.03;;;27.10;;
17917;SDS011;9084;50.956;3.106;2022-12-10T01:11:03;49.90;;;27.30;;
17917;SDS011;9084;50.956;3.106;2022-12-10T01:13:30;45.43;;;28.07;;
17917;SDS011;9084;50.956;3.106;2022-12-10T01:15:59;47.40;;;27.23;;
17917;SDS011;9084;50.956;3.106;2022-12-10T01:18:26;45.40;;;28.60;;
17917;SDS011;9084;50.956;3.106;2022-12-10T01:20:52;47.80;;;27.67;;
17917;SDS011;9084;50.956;3.106;2022-12-10T01:23:18;47.63;;;28.60;;
17917;SDS011;9084;50.956;3.106;2022-12-10T01:25:47;49.90;;;29.67;;
17917;SDS011;9084;50.956;3.106;2022-12-10T01:28:13;55.10;;;30.57;;
17917;SDS011;9084;50.956;3.106;2022-12-10T01:30:39;53.60;;;27.20;;
17917;SDS011;9084;50.956;3.106;2022-12-10T01:33:07;50.80;;;25.77;;
17917;SDS011;9084;50.956;3.106;2022-12-10T01:35:35;53.63;;;31.23;;
17917;SDS011;9084;50.956;3.106;2022-12-10T01:38:02;34.93;;;22.33;;
17917;SDS011;9084;50.956;3.106;2022-12-10T01:40:28;37.23;;;20.17;;
17917;SDS011;9084;50.956;3.106;2022-12-10T01:42:56;35.47;;;22.60;;
17917;SDS011;9084;50.956;3.106;2022-12-10T01:45:23;31.07;;;21.43;;
17917;SDS011;9084;50.956;3.106;2022-12-10T01:47:53;30.63;;;19.30;;
17917;SDS011;9084;50.956;3.106;2022-12-10T01:50:19;33.00;;;21.70;;
17917;SDS011;9084;50.956;3.106;2022-12-10T01:52:48;30.30;;;20.37;;
17917;SDS011;9084;50.956;3.106;2022-12-10T01:58:07;41.10;;;24.87;;
17917;SDS011;9084;50.956;3.106;2022-12-10T02:00:34;39.37;;;23.97;;
17917;SDS011;9084;50.956;3.106;2022-12-10T02:03:08;38.37;;;24.47;;
17917;SDS011;9084;50.956;3.106;2022-12-10T02:05:41;50.53;;;25.20;;
17917;SDS011;9084;50.956;3.106;2022-12-10T02:08:22;36.03;;;22.77;;
17917;SDS011;9084;50.956;3.106;2022-12-10T02:11:19;30.53;;;22.23;;
17917;SDS011;9084;50.956;3.106;2022-12-10T02:13:59;65.17;;;19.53;;
17917;SDS011;9084;50.956;3.106;2022-12-10T02:16:46;28.03;;;17.17;;
17917;SDS011;9084;50.956;3.106;2022-12-10T02:19:26;25.37;;;17.10;;
17917;SDS011;9084;50.956;3.106;2022-12-10T02:22:24;24.70;;;17.47;;
17917;SDS011;9084;50.956;3.106;2022-12-10T02:24:54;35.20;;;18.80;;
17917;SDS011;9084;50.956;3.106;2022-12-10T02:27:25;31.30;;;19.57;;
17917;SDS011;9084;50.956;3.106;2022-12-10T02:29:59;27.47;;;18.43;;
17917;SDS011;9084;50.956;3.106;2022-12-10T02:32:27;34.83;;;20.17;;
17917;SDS011;9084;50.956;3.106;2022-12-10T02:34:58;30.37;;;18.03;;
17917;SDS011;9084;50.956;3.106;2022-12-10T02:37:29;29.90;;;19.83;;
17917;SDS011;9084;50.956;3.106;2022-12-10T02:39:58;42.53;;;19.50;;
17917;SDS011;9084;50.956;3.106;2022-12-10T02:42:30;30.20;;;19.97;;
17917;SDS011;9084;50.956;3.106;2022-12-10T02:45:01;34.57;;;19.67;;
17917;SDS011;9084;50.956;3.106;2022-12-10T02:47:27;28.97;;;18.37;;
17917;SDS011;9084;50.956;3.106;2022-12-10T02:49:53;38.60;;;20.80;;
17917;SDS011;9084;50.956;3.106;2022-12-10T02:52:22;30.90;;;20.23;;
17917;SDS011;9084;50.956;3.106;2022-12-10T02:54:49;32.83;;;20.43;;
17917;SDS011;9084;50.956;3.106;2022-12-10T03:00:19;38.47;;;21.27;;
17917;SDS011;9084;50.956;3.106;2022-12-10T03:08:45;42.03;;;21.83;;
17917;SDS011;9084;50.956;3.106;2022-12-10T03:11:19;37.60;;;22.87;;
17917;SDS011;9084;50.956;3.106;2022-12-10T03:14:11;35.70;;;23.93;;
17917;SDS011;9084;50.956;3.106;2022-12-10T03:16:49;37.90;;;23.43;;
17917;SDS011;9084;50.956;3.106;2022-12-10T03:19:21;34.27;;;22.20;;
17917;SDS011;9084;50.956;3.106;2022-12-10T03:21:51;28.83;;;19.87;;
17917;SDS011;9084;50.956;3.106;2022-12-10T03:24:19;28.33;;;19.97;;
17917;SDS011;9084;50.956;3.106;2022-12-10T03:26:47;26.23;;;19.30;;
17917;SDS011;9084;50.956;3.106;2022-12-10T03:29:18;21.40;;;17.37;;
17917;SDS011;9084;50.956;3.106;2022-12-10T03:31:50;25.53;;;17.60;;
17917;SDS011;9084;50.956;3.106;2022-12-10T03:34:19;22.10;;;16.43;;
17917;SDS011;9084;50.956;3.106;2022-12-10T03:36:46;24.70;;;15.53;;
17917;SDS011;9084;50.956;3.106;2022-12-10T03:39:12;19.67;;;15.17;;
17917;SDS011;9084;50.956;3.106;2022-12-10T03:41:40;20.23;;;14.10;;
17917;SDS011;9084;50.956;3.106;2022-12-10T03:44:06;19.20;;;15.53;;
17917;SDS011;9084;50.956;3.106;2022-12-10T03:46:32;21.83;;;15.13;;
17917;SDS011;9084;50.956;3.106;2022-12-10T03:49:01;19.13;;;15.63;;
17917;SDS011;9084;50.956;3.106;2022-12-10T03:51:27;21.03;;;15.50;;
17917;SDS011;9084;50.956;3.106;2022-12-10T03:53:53;20.00;;;15.43;;
17917;SDS011;9084;50.956;3.106;2022-12-10T03:56:21;19.73;;;15.97;;
17917;SDS011;9084;50.956;3.106;2022-12-10T03:58:48;20.97;;;15.90;;
17917;SDS011;9084;50.956;3.106;2022-12-10T04:01:14;22.23;;;14.67;;
17917;SDS011;9084;50.956;3.106;2022-12-10T04:03:42;20.80;;;15.77;;
17917;SDS011;9084;50.956;3.106;2022-12-10T04:06:12;18.80;;;13.77;;
17917;SDS011;9084;50.956;3.106;2022-12-10T04:08:43;20.47;;;13.60;;
17917;SDS011;9084;50.956;3.106;2022-12-10T04:11:10;17.60;;;14.87;;
17917;SDS011;9084;50.956;3.106;2022-12-10T04:13:37;15.47;;;13.87;;
17917;SDS011;9084;50.956;3.106;2022-12-10T04:16:21;16.13;;;13.43;;
17917;SDS011;9084;50.956;3.106;2022-12-10T04:18:51;17.13;;;13.70;;
17917;SDS011;9084;50.956;3.106;2022-12-10T04:21:20;20.80;;;14.17;;
17917;SDS011;9084;50.956;3.106;2022-12-10T04:24:04;15.67;;;12.97;;
17917;SDS011;9084;50.956;3.106;2022-12-10T04:26:51;16.10;;;12.50;;
17917;SDS011;9084;50.956;3.106;2022-12-10T04:29:21;15.77;;;12.33;;
17917;SDS011;9084;50.956;3.106;2022-12-10T04:31:54;14.23;;;11.67;;
17917;SDS011;9084;50.956;3.106;2022-12-10T04:34:21;13.90;;;11.40;;
17917;SDS011;9084;50.956;3.106;2022-12-10T04:36:51;15.27;;;13.03;;
17917;SDS011;9084;50.956;3.106;2022-12-10T04:39:17;13.93;;;12.30;;
17917;SDS011;9084;50.956;3.106;2022-12-10T04:41:46;15.07;;;13.03;;
17917;SDS011;9084;50.956;3.106;2022-12-10T04:44:14;15.87;;;12.73;;
17917;SDS011;9084;50.956;3.106;2022-12-10T04:46:43;14.50;;;12.20;;
17917;SDS011;9084;50.956;3.106;2022-12-10T04:49:12;16.47;;;12.93;;
17917;SDS011;9084;50.956;3.106;2022-12-10T04:51:41;16.47;;;12.80;;
17917;SDS011;9084;50.956;3.106;2022-12-10T04:54:09;19.53;;;13.73;;
17917;SDS011;9084;50.956;3.106;2022-12-10T04:56:36;15.67;;;13.20;;
17917;SDS011;9084;50.956;3.106;2022-12-10T04:59:03;18.77;;;13.43;;
17917;SDS011;9084;50.956;3.106;2022-12-10T05:01:33;17.13;;;12.67;;
17917;SDS011;9084;50.956;3.106;2022-12-10T05:04:00;18.90;;;13.27;;
17917;SDS011;9084;50.956;3.106;2022-12-10T05:06:26;18.07;;;13.60;;
17917;SDS011;9084;50.956;3.106;2022-12-10T05:08:55;16.27;;;12.17;;
17917;SDS011;9084;50.956;3.106;2022-12-10T05:11:21;15.70;;;12.93;;
17917;SDS011;9084;50.956;3.106;2022-12-10T05:13:49;18.53;;;13.10;;
17917;SDS011;9084;50.956;3.106;2022-12-10T05:16:16;17.93;;;13.50;;
17917;SDS011;9084;50.956;3.106;2022-12-10T05:18:43;20.23;;;14.93;;
17917;SDS011;9084;50.956;3.106;2022-12-10T05:21:13;19.77;;;12.93;;
17917;SDS011;9084;50.956;3.106;2022-12-10T05:23:42;14.37;;;12.03;;
17917;SDS011;9084;50.956;3.106;2022-12-10T05:26:14;19.03;;;11.67;;
17917;SDS011;9084;50.956;3.106;2022-12-10T05:31:22;14.10;;;12.33;;
17917;SDS011;9084;50.956;3.106;2022-12-10T05:33:49;15.40;;;12.53;;
17917;SDS011;9084;50.956;3.106;2022-12-10T05:36:16;15.63;;;11.70;;
17917;SDS011;9084;50.956;3.106;2022-12-10T05:38:45;16.27;;;11.30;;
17917;SDS011;9084;50.956;3.106;2022-12-10T05:41:18;17.00;;;11.60;;
17917;SDS011;9084;50.956;3.106;2022-12-10T05:43:45;13.67;;;11.40;;
17917;SDS011;9084;50.956;3.106;2022-12-10T05:46:16;16.00;;;11.93;;
17917;SDS011;9084;50.956;3.106;2022-12-10T05:48:47;13.57;;;11.60;;
17917;SDS011;9084;50.956;3.106;2022-12-10T05:51:20;12.50;;;11.20;;
17917;SDS011;9084;50.956;3.106;2022-12-10T05:53:47;14.30;;;12.47;;
17917;SDS011;9084;50.956;3.106;2022-12-10T05:56:16;12.90;;;11.60;;
17917;SDS011;9084;50.956;3.106;2022-12-10T05:58:44;14.60;;;11.83;;
17917;SDS011;9084;50.956;3.106;2022-12-10T06:01:18;17.10;;;12.27;;
17917;SDS011;9084;50.956;3.106;2022-12-10T06:03:46;13.40;;;12.00;;
17917;SDS011;9084;50.956;3.106;2022-12-10T06:06:12;12.90;;;11.53;;
17917;SDS011;9084;50.956;3.106;2022-12-10T06:08:38;12.90;;;11.27;;
17917;SDS011;9084;50.956;3.106;2022-12-10T06:11:10;15.57;;;11.70;;
17917;SDS011;9084;50.956;3.106;2022-12-10T06:13:36;13.97;;;12.13;;
17917;SDS011;9084;50.956;3.106;2022-12-10T06:16:06;15.27;;;12.73;;
17917;SDS011;9084;50.956;3.106;2022-12-10T06:18:33;13.70;;;12.17;;
17917;SDS011;9084;50.956;3.106;2022-12-10T06:21:03;15.27;;;13.03;;
17917;SDS011;9084;50.956;3.106;2022-12-10T06:23:33;16.03;;;13.10;;
17917;SDS011;9084;50.956;3.106;2022-12-10T06:26:07;17.97;;;14.33;;
17917;SDS011;9084;50.956;3.106;2022-12-10T06:28:37;16.00;;;14.27;;
17917;SDS011;9084;50.956;3.106;2022-12-10T06:31:03;16.37;;;12.90;;
17917;SDS011;9084;50.956;3.106;2022-12-10T06:33:30;14.33;;;12.80;;
17917;SDS011;9084;50.956;3.106;2022-12-10T06:35:56;17.87;;;13.20;;
17917;SDS011;9084;50.956;3.106;2022-12-10T06:38:25;16.40;;;13.60;;
17917;SDS011;9084;50.956;3.106;2022-12-10T06:40:50;15.37;;;12.93;;
17917;SDS011;9084;50.956;3.106;2022-12-10T06:43:17;15.73;;;13.30;;
17917;SDS011;9084;50.956;3.106;2022-12-10T06:45:43;15.77;;;13.30;;
17917;SDS011;9084;50.956;3.106;2022-12-10T06:48:09;17.93;;;15.03;;
17917;SDS011;9084;50.956;3.106;2022-12-10T06:50:35;18.73;;;13.50;;
17917;SDS011;9084;50.956;3.106;2022-12-10T06:53:00;16.73;;;13.83;;
17917;SDS011;9084;50.956;3.106;2022-12-10T06:55:27;16.83;;;13.67;;
17917;SDS011;9084;50.956;3.106;2022-12-10T06:57:56;17.63;;;14.70;;
17917;SDS011;9084;50.956;3.106;2022-12-10T07:00:22;17.23;;;14.40;;
17917;SDS011;9084;50.956;3.106;2022-12-10T07:02:48;16.60;;;13.70;;
17917;SDS011;9084;50.956;3.106;2022-12-10T07:05:15;16.70;;;14.00;;
17917;SDS011;9084;50.956;3.106;2022-12-10T07:07:40;15.33;;;12.83;;
17917;SDS011;9084;50.956;3.106;2022-12-10T07:10:07;14.70;;;11.60;;
17917;SDS011;9084;50.956;3.106;2022-12-10T07:12:34;17.30;;;12.67;;
17917;SDS011;9084;50.956;3.106;2022-12-10T07:15:02;17.13;;;13.07;;
17917;SDS011;9084;50.956;3.106;2022-12-10T07:17:28;19.83;;;13.27;;
17917;SDS011;9084;50.956;3.106;2022-12-10T07:19:54;15.87;;;12.03;;
17917;SDS011;9084;50.956;3.106;2022-12-10T07:22:20;16.40;;;13.33;;
17917;SDS011;9084;50.956;3.106;2022-12-10T07:24:47;19.97;;;13.00;;
17917;SDS011;9084;50.956;3.106;2022-12-10T07:27:14;15.90;;;12.93;;
17917;SDS011;9084;50.956;3.106;2022-12-10T07:29:43;17.27;;;13.60;;
17917;SDS011;9084;50.956;3.106;2022-12-10T07:32:12;16.27;;;13.90;;
17917;SDS011;9084;50.956;3.106;2022-12-10T07:34:38;19.67;;;14.17;;
17917;SDS011;9084;50.956;3.106;2022-12-10T07:37:06;17.30;;;13.30;;
17917;SDS011;9084;50.956;3.106;2022-12-10T07:39:32;18.10;;;14.07;;
17917;SDS011;9084;50.956;3.106;2022-12-10T07:42:01;15.23;;;12.77;;
17917;SDS011;9084;50.956;3.106;2022-12-10T07:44:30;20.00;;;13.33;;
17917;SDS011;9084;50.956;3.106;2022-12-10T07:46:58;17.37;;;13.70;;
17917;SDS011;9084;50.956;3.106;2022-12-10T07:49:25;16.30;;;13.60;;
17917;SDS011;9084;50.956;3.106;2022-12-10T07:51:50;15.87;;;12.07;;
17917;SDS011;9084;50.956;3.106;2022-12-10T07:54:17;23.60;;;13.83;;
17917;SDS011;9084;50.956;3.106;2022-12-10T07:56:44;16.97;;;12.07;;
17917;SDS011;9084;50.956;3.106;2022-12-10T07:59:10;17.77;;;13.67;;
17917;SDS011;9084;50.956;3.106;2022-12-10T08:01:36;20.17;;;13.90;;
17917;SDS011;9084;50.956;3.106;2022-12-10T08:04:02;17.77;;;13.53;;
17917;SDS011;9084;50.956;3.106;2022-12-10T08:06:29;18.33;;;12.97;;
17917;SDS011;9084;50.956;3.106;2022-12-10T08:08:57;18.40;;;13.47;;
17917;SDS011;9084;50.956;3.106;2022-12-10T08:11:24;18.77;;;14.10;;
17917;SDS011;9084;50.956;3.106;2022-12-10T08:13:53;16.60;;;12.77;;
17917;SDS011;9084;50.956;3.106;2022-12-10T08:16:20;18.77;;;12.87;;
17917;SDS011;9084;50.956;3.106;2022-12-10T08:18:51;19.17;;;13.30;;
17917;SDS011;9084;50.956;3.106;2022-12-10T08:21:20;16.20;;;12.73;;
17917;SDS011;9084;50.956;3.106;2022-12-10T08:23:49;17.73;;;12.23;;
17917;SDS011;9084;50.956;3.106;2022-12-10T08:26:20;16.17;;;12.27;;
17917;SDS011;9084;50.956;3.106;2022-12-10T08:28:47;14.73;;;12.20;;
17917;SDS011;9084;50.956;3.106;2022-12-10T08:31:17;14.37;;;11.53;;
17917;SDS011;9084;50.956;3.106;2022-12-10T08:33:46;15.20;;;10.93;;
17917;SDS011;9084;50.956;3.106;2022-12-10T08:36:17;14.63;;;12.17;;
17917;SDS011;9084;50.956;3.106;2022-12-10T08:38:46;13.00;;;11.60;;
17917;SDS011;9084;50.956;3.106;2022-12-10T08:41:18;15.10;;;11.80;;
17917;SDS011;9084;50.956;3.106;2022-12-10T08:43:47;13.53;;;11.23;;
17917;SDS011;9084;50.956;3.106;2022-12-10T08:46:18;14.83;;;11.23;;
17917;SDS011;9084;50.956;3.106;2022-12-10T08:48:49;15.07;;;11.80;;
17917;SDS011;9084;50.956;3.106;2022-12-10T08:51:16;13.73;;;11.57;;
17917;SDS011;9084;50.956;3.106;2022-12-10T08:53:46;12.43;;;10.93;;
17917;SDS011;9084;50.956;3.106;2022-12-10T08:56:13;13.10;;;11.20;;
17917;SDS011;9084;50.956;3.106;2022-12-10T08:58:41;12.87;;;10.77;;
17917;SDS011;9084;50.956;3.106;2022-12-10T09:01:08;11.70;;;9.93;;
17917;SDS011;9084;50.956;3.106;2022-12-10T09:03:36;15.10;;;11.23;;
17917;SDS011;9084;50.956;3.106;2022-12-10T09:06:03;15.70;;;12.17;;
17917;SDS011;9084;50.956;3.106;2022-12-10T09:08:37;14.33;;;11.77;;
17917;SDS011;9084;50.956;3.106;2022-12-10T09:11:07;13.63;;;11.10;;
17917;SDS011;9084;50.956;3.106;2022-12-10T09:13:35;14.30;;;11.60;;
17917;SDS011;9084;50.956;3.106;2022-12-10T09:16:01;15.27;;;12.03;;
17917;SDS011;9084;50.956;3.106;2022-12-10T09:18:27;15.07;;;12.93;;
17917;SDS011;9084;50.956;3.106;2022-12-10T09:20:53;18.60;;;12.27;;
17917;SDS011;9084;50.956;3.106;2022-12-10T09:23:19;18.13;;;12.40;;
17917;SDS011;9084;50.956;3.106;2022-12-10T09:25:44;15.77;;;12.77;;
17917;SDS011;9084;50.956;3.106;2022-12-10T09:28:13;16.03;;;13.27;;
17917;SDS011;9084;50.956;3.106;2022-12-10T09:30:39;16.03;;;13.17;;
17917;SDS011;9084;50.956;3.106;2022-12-10T09:33:05;17.07;;;13.57;;
17917;SDS011;9084;50.956;3.106;2022-12-10T09:35:31;17.67;;;14.07;;
17917;SDS011;9084;50.956;3.106;2022-12-10T09:37:59;16.13;;;13.80;;
17917;SDS011;9084;50.956;3.106;2022-12-10T09:43:19;19.40;;;15.47;;
17917;SDS011;9084;50.956;3.106;2022-12-10T09:53:49;14.03;;;11.63;;
17917;SDS011;9084;50.956;3.106;2022-12-10T09:56:26;14.00;;;11.93;;
17917;SDS011;9084;50.956;3.106;2022-12-10T09:58:57;11.37;;;10.13;;
17917;SDS011;9084;50.956;3.106;2022-12-10T10:01:28;12.57;;;10.97;;
17917;SDS011;9084;50.956;3.106;2022-12-10T10:03:57;12.00;;;10.70;;
17917;SDS011;9084;50.956;3.106;2022-12-10T10:06:23;11.40;;;10.20;;
17917;SDS011;9084;50.956;3.106;2022-12-10T10:08:52;11.53;;;10.17;;
17917;SDS011;9084;50.956;3.106;2022-12-10T10:11:25;12.10;;;9.87;;
17917;SDS011;9084;50.956;3.106;2022-12-10T10:14:01;11.60;;;9.33;;
17917;SDS011;9084;50.956;3.106;2022-12-10T10:16:39;10.63;;;9.47;;
17917;SDS011;9084;50.956;3.106;2022-12-10T10:19:26;8.80;;;7.43;;
17917;SDS011;9084;50.956;3.106;2022-12-10T10:21:55;8.97;;;8.07;;
17917;SDS011;9084;50.956;3.106;2022-12-10T10:24:22;10.77;;;8.97;;
17917;SDS011;9084;50.956;3.106;2022-12-10T10:26:51;11.90;;;10.70;;
17917;SDS011;9084;50.956;3.106;2022-12-10T10:29:21;11.57;;;8.83;;
17917;SDS011;9084;50.956;3.106;2022-12-10T10:32:09;9.57;;;8.67;;
17917;SDS011;9084;50.956;3.106;2022-12-10T10:34:56;9.47;;;8.57;;
17917;SDS011;9084;50.956;3.106;2022-12-10T10:37:25;10.67;;;9.17;;
17917;SDS011;9084;50.956;3.106;2022-12-10T10:39:56;11.87;;;10.47;;
17917;SDS011;9084;50.956;3.106;2022-12-10T10:42:39;10.50;;;9.20;;
17917;SDS011;9084;50.956;3.106;2022-12-10T10:45:51;12.03;;;10.73;;
17917;SDS011;9084;50.956;3.106;2022-12-10T10:48:12;11.27;;;10.10;;
17917;SDS011;9084;50.956;3.106;2022-12-10T10:50:45;11.10;;;9.93;;
17917;SDS011;9084;50.956;3.106;2022-12-10T10:56:20;11.00;;;9.03;;
17917;SDS011;9084;50.956;3.106;2022-12-10T10:58:58;11.97;;;10.77;;
17917;SDS011;9084;50.956;3.106;2022-12-10T11:01:49;13.20;;;11.10;;
17917;SDS011;9084;50.956;3.106;2022-12-10T11:04:16;12.10;;;10.87;;
17917;SDS011;9084;50.956;3.106;2022-12-10T11:06:48;12.27;;;10.93;;
17917;SDS011;9084;50.956;3.106;2022-12-10T11:09:21;12.77;;;10.97;;
17917;SDS011;9084;50.956;3.106;2022-12-10T11:11:57;13.33;;;11.90;;
17917;SDS011;9084;50.956;3.106;2022-12-10T11:14:26;12.80;;;10.23;;
17917;SDS011;9084;50.956;3.106;2022-12-10T11:17:03;13.03;;;11.73;;
17917;SDS011;9084;50.956;3.106;2022-12-10T11:20:01;11.87;;;10.53;;
17917;SDS011;9084;50.956;3.106;2022-12-10T11:22:55;12.50;;;11.07;;
17917;SDS011;9084;50.956;3.106;2022-12-10T11:31:40;16.37;;;11.87;;
17917;SDS011;9084;50.956;3.106;2022-12-10T11:42:54;16.47;;;12.70;;
17917;SDS011;9084;50.956;3.106;2022-12-10T11:45:26;15.03;;;12.47;;
17917;SDS011;9084;50.956;3.106;2022-12-10T11:50:59;14.60;;;13.03;;
17917;SDS011;9084;50.956;3.106;2022-12-10T11:54:00;17.50;;;13.37;;
17917;SDS011;9084;50.956;3.106;2022-12-10T11:56:45;17.80;;;14.13;;
17917;SDS011;9084;50.956;3.106;2022-12-10T12:13:54;14.83;;;12.93;;
17917;SDS011;9084;50.956;3.106;2022-12-10T12:19:30;13.43;;;11.43;;
17917;SDS011;9084;50.956;3.106;2022-12-10T12:22:04;12.90;;;10.70;;
17917;SDS011;9084;50.956;3.106;2022-12-10T12:24:46;13.87;;;10.97;;
17917;SDS011;9084;50.956;3.106;2022-12-10T12:30:22;14.37;;;10.17;;
17917;SDS011;9084;50.956;3.106;2022-12-10T12:32:59;14.57;;;10.90;;
17917;SDS011;9084;50.956;3.106;2022-12-10T12:37:56;15.43;;;13.87;;
17917;SDS011;9084;50.956;3.106;2022-12-10T12:40:34;16.73;;;13.93;;
17917;SDS011;9084;50.956;3.106;2022-12-10T12:43:09;16.67;;;12.87;;
17917;SDS011;9084;50.956;3.106;2022-12-10T12:45:40;17.33;;;14.30;;
17917;SDS011;9084;50.956;3.106;2022-12-10T12:48:17;16.87;;;14.73;;
17917;SDS011;9084;50.956;3.106;2022-12-10T12:50:47;17.93;;;12.47;;
17917;SDS011;9084;50.956;3.106;2022-12-10T12:53:19;17.53;;;12.93;;
17917;SDS011;9084;50.956;3.106;2022-12-10T12:55:50;14.97;;;12.37;;
17917;SDS011;9084;50.956;3.106;2022-12-10T12:58:22;16.37;;;11.93;;
17917;SDS011;9084;50.956;3.106;2022-12-10T13:02:11;14.37;;;11.23;;
17917;SDS011;9084;50.956;3.106;2022-12-10T13:04:14;13.70;;;11.30;;
17917;SDS011;9084;50.956;3.106;2022-12-10T13:06:42;16.20;;;10.23;;
17917;SDS011;9084;50.956;3.106;2022-12-10T13:15:35;14.30;;;11.27;;
17917;SDS011;9084;50.956;3.106;2022-12-10T13:18:53;14.73;;;11.03;;
17917;SDS011;9084;50.956;3.106;2022-12-10T13:23:53;12.20;;;9.27;;
17917;SDS011;9084;50.956;3.106;2022-12-10T13:26:30;16.17;;;11.40;;
17917;SDS011;9084;50.956;3.106;2022-12-10T13:32:03;11.70;;;9.90;;
17917;SDS011;9084;50.956;3.106;2022-12-10T13:34:38;12.40;;;9.13;;
17917;SDS011;9084;50.956;3.106;2022-12-10T13:37:06;13.03;;;9.63;;
17917;SDS011;9084;50.956;3.106;2022-12-10T13:42:34;9.23;;;8.20;;
17917;SDS011;9084;50.956;3.106;2022-12-10T13:47:53;10.23;;;9.00;;
17917;SDS011;9084;50.956;3.106;2022-12-10T13:56:22;10.10;;;8.70;;
17917;SDS011;9084;50.956;3.106;2022-12-10T14:07:50;12.47;;;10.20;;
17917;SDS011;9084;50.956;3.106;2022-12-10T14:10:18;12.23;;;10.27;;
17917;SDS011;9084;50.956;3.106;2022-12-10T14:12:51;14.03;;;9.97;;
17917;SDS011;9084;50.956;3.106;2022-12-10T14:15:20;12.50;;;9.83;;
17917;SDS011;9084;50.956;3.106;2022-12-10T14:17:49;13.83;;;10.20;;
17917;SDS011;9084;50.956;3.106;2022-12-10T14:20:22;12.90;;;10.83;;
17917;SDS011;9084;50.956;3.106;2022-12-10T14:22:51;11.43;;;10.23;;
17917;SDS011;9084;50.956;3.106;2022-12-10T14:25:42;11.17;;;9.00;;
17917;SDS011;9084;50.956;3.106;2022-12-10T14:28:11;11.20;;;9.30;;
17917;SDS011;9084;50.956;3.106;2022-12-10T14:30:45;12.93;;;9.80;;
17917;SDS011;9084;50.956;3.106;2022-12-10T14:33:22;13.83;;;10.00;;
17917;SDS011;9084;50.956;3.106;2022-12-10T14:35:50;10.80;;;9.53;;
17917;SDS011;9084;50.956;3.106;2022-12-10T14:38:18;12.50;;;10.00;;
17917;SDS011;9084;50.956;3.106;2022-12-10T14:40:55;9.80;;;8.80;;
17917;SDS011;9084;50.956;3.106;2022-12-10T14:43:22;11.43;;;10.17;;
17917;SDS011;9084;50.956;3.106;2022-12-10T14:45:56;11.80;;;10.60;;
17917;SDS011;9084;50.956;3.106;2022-12-10T14:48:24;13.07;;;11.10;;
17917;SDS011;9084;50.956;3.106;2022-12-10T14:50:53;11.87;;;10.67;;
17917;SDS011;9084;50.956;3.106;2022-12-10T14:53:28;12.87;;;10.43;;
17917;SDS011;9084;50.956;3.106;2022-12-10T14:56:03;10.93;;;9.73;;
17917;SDS011;9084;50.956;3.106;2022-12-10T15:00:58;11.33;;;10.23;;
17917;SDS011;9084;50.956;3.106;2022-12-10T15:03:26;12.00;;;10.70;;
17917;SDS011;9084;50.956;3.106;2022-12-10T15:05:55;9.93;;;8.73;;
17917;SDS011;9084;50.956;3.106;2022-12-10T15:08:23;12.33;;;9.47;;
17917;SDS011;9084;50.956;3.106;2022-12-10T15:10:51;11.47;;;9.60;;
17917;SDS011;9084;50.956;3.106;2022-12-10T15:15:51;12.43;;;10.67;;
17917;SDS011;9084;50.956;3.106;2022-12-10T15:18:19;12.07;;;10.80;;
17917;SDS011;9084;50.956;3.106;2022-12-10T15:20:53;13.77;;;10.73;;
17917;SDS011;9084;50.956;3.106;2022-12-10T15:23:33;13.20;;;11.37;;
17917;SDS011;9084;50.956;3.106;2022-12-10T15:26:04;13.07;;;11.13;;
17917;SDS011;9084;50.956;3.106;2022-12-10T15:28:52;12.30;;;10.50;;
17917;SDS011;9084;50.956;3.106;2022-12-10T15:31:38;14.60;;;13.07;;
17917;SDS011;9084;50.956;3.106;2022-12-10T15:34:08;15.90;;;12.47;;
17917;SDS011;9084;50.956;3.106;2022-12-10T15:44:18;15.90;;;13.07;;
17917;SDS011;9084;50.956;3.106;2022-12-10T15:47:01;15.37;;;12.77;;
17917;SDS011;9084;50.956;3.106;2022-12-10T15:49:40;14.50;;;11.97;;
17917;SDS011;9084;50.956;3.106;2022-12-10T15:52:19;15.07;;;13.47;;
17917;SDS011;9084;50.956;3.106;2022-12-10T15:54:50;14.47;;;13.07;;
17917;SDS011;9084;50.956;3.106;2022-12-10T15:57:18;14.57;;;13.07;;
17917;SDS011;9084;50.956;3.106;2022-12-10T15:59:56;13.60;;;12.20;;
17917;SDS011;9084;50.956;3.106;2022-12-10T16:04:50;16.87;;;11.70;;
17917;SDS011;9084;50.956;3.106;2022-12-10T16:07:16;13.87;;;10.40;;
17917;SDS011;9084;50.956;3.106;2022-12-10T16:09:42;13.93;;;10.50;;
17917;SDS011;9084;50.956;3.106;2022-12-10T16:12:15;10.93;;;9.40;;
17917;SDS011;9084;50.956;3.106;2022-12-10T16:14:51;11.10;;;8.90;;
17917;SDS011;9084;50.956;3.106;2022-12-10T16:17:25;10.43;;;9.37;;
17917;SDS011;9084;50.956;3.106;2022-12-10T16:19:59;10.63;;;9.53;;
17917;SDS011;9084;50.956;3.106;2022-12-10T16:22:34;9.87;;;8.93;;
17917;SDS011;9084;50.956;3.106;2022-12-10T16:25:02;11.13;;;8.60;;
17917;SDS011;9084;50.956;3.106;2022-12-10T16:27:31;10.90;;;8.40;;
17917;SDS011;9084;50.956;3.106;2022-12-10T16:29:57;9.17;;;8.17;;
17917;SDS011;9084;50.956;3.106;2022-12-10T16:32:23;9.97;;;8.97;;
17917;SDS011;9084;50.956;3.106;2022-12-10T16:34:54;12.40;;;9.10;;
17917;SDS011;9084;50.956;3.106;2022-12-10T16:37:20;9.90;;;9.00;;
17917;SDS011;9084;50.956;3.106;2022-12-10T16:39:46;10.13;;;7.87;;
17917;SDS011;9084;50.956;3.106;2022-12-10T16:42:12;9.90;;;8.33;;
17917;SDS011;9084;50.956;3.106;2022-12-10T16:44:40;8.50;;;7.67;;
17917;SDS011;9084;50.956;3.106;2022-12-10T16:47:12;8.30;;;7.50;;
17917;SDS011;9084;50.956;3.106;2022-12-10T16:49:40;8.93;;;6.43;;
17917;SDS011;9084;50.956;3.106;2022-12-10T16:52:05;7.93;;;7.00;;
17917;SDS011;9084;50.956;3.106;2022-12-10T16:54:32;7.97;;;6.70;;
17917;SDS011;9084;50.956;3.106;2022-12-10T16:56:57;7.57;;;6.70;;